Time;durP1;ratioP1;P1;durP2;ratioP2;P2;SDS_P1;SDS_P2;PMS_P1;PMS_P2;Temp;Humidity;BMP_temperature;BMP_pressure;BME280_temperature;BME280_humidity;BME280_pressure;Samples;Min_cycle;Max_cycle;Signal;HPM_P1;HPM_P2
2021/07/20 00:00:50;;;;;;;7.60;5.63;;;20.70;99.90;;;;;;5011244;28;20485;-52
2021/07/20 00:03:18;;;;;;;5.20;4.70;;;20.70;99.90;;;;;;5007200;28;20539;-52
2021/07/20 00:05:45;;;;;;;7.10;5.80;;;20.70;99.90;;;;;;5006080;28;20469;-52
2021/07/20 00:08:13;;;;;;;6.23;5.40;;;20.70;99.90;;;;;;5008613;28;20458;-53
2021/07/20 00:10:47;;;;;;;6.20;5.03;;;20.70;99.90;;;;;;5009577;28;20530;-51
2021/07/20 00:13:14;;;;;;;5.80;4.97;;;20.70;99.90;;;;;;5010220;28;20448;-52
2021/07/20 00:15:41;;;;;;;5.50;4.90;;;20.60;99.90;;;;;;5011032;28;20954;-53
2021/07/20 00:18:10;;;;;;;6.27;5.00;;;20.60;99.90;;;;;;5011502;28;20507;-53
2021/07/20 00:20:39;;;;;;;6.30;5.50;;;20.50;99.90;;;;;;5011447;28;20536;-53
2021/07/20 00:23:07;;;;;;;10.43;5.87;;;20.40;99.90;;;;;;5010836;28;20901;-52
2021/07/20 00:25:34;;;;;;;6.60;5.07;;;20.50;99.90;;;;;;5011395;28;20464;-52
2021/07/20 00:28:01;;;;;;;6.60;5.30;;;20.40;99.90;;;;;;5011606;28;20515;-51
2021/07/20 00:30:28;;;;;;;8.30;5.63;;;20.30;99.90;;;;;;5011475;28;20560;-52
2021/07/20 00:32:55;;;;;;;8.23;5.87;;;20.30;99.90;;;;;;5010953;28;20445;-53
2021/07/20 00:35:23;;;;;;;7.33;5.60;;;20.30;99.90;;;;;;5011403;28;20504;-51
2021/07/20 00:37:52;;;;;;;7.50;5.57;;;20.20;99.90;;;;;;5010860;28;20504;-53
2021/07/20 00:40:20;;;;;;;12.17;5.87;;;20.10;99.90;;;;;;5011465;28;20848;-53
2021/07/20 00:42:47;;;;;;;7.07;5.50;;;20.10;99.90;;;;;;5010767;28;21002;-52
2021/07/20 00:45:16;;;;;;;6.80;5.70;;;20.10;99.90;;;;;;5011026;28;20457;-51
2021/07/20 00:47:44;;;;;;;6.60;4.87;;;20.00;99.90;;;;;;5013206;28;20511;-51
2021/07/20 00:50:13;;;;;;;7.00;5.43;;;20.00;99.90;;;;;;5014743;28;20473;-52
2021/07/20 00:52:40;;;;;;;7.67;6.23;;;20.00;99.90;;;;;;5014595;28;20577;-53
2021/07/20 00:55:11;;;;;;;7.67;5.27;;;19.90;99.90;;;;;;5014389;28;21013;-52
2021/07/20 00:57:40;;;;;;;9.67;5.90;;;19.90;99.90;;;;;;5014875;28;20568;-52
2021/07/20 01:00:11;;;;;;;6.87;5.67;;;19.90;99.90;;;;;;5014473;28;20477;-53
2021/07/20 01:02:38;;;;;;;7.87;6.03;;;19.90;99.90;;;;;;5014372;28;20561;-52
2021/07/20 01:05:05;;;;;;;6.40;5.77;;;19.80;99.90;;;;;;5013913;28;20453;-51
2021/07/20 01:07:35;;;;;;;6.63;5.60;;;19.70;99.90;;;;;;5014582;28;20872;-53
2021/07/20 01:10:06;;;;;;;11.13;6.10;;;19.70;99.90;;;;;;5014467;28;21083;-52
2021/07/20 01:12:38;;;;;;;6.67;5.17;;;19.70;99.90;;;;;;5014107;28;20453;-52
2021/07/20 01:15:07;;;;;;;5.77;5.10;;;19.70;99.90;;;;;;5014302;28;20461;-52
2021/07/20 01:17:35;;;;;;;6.60;5.90;;;19.70;99.90;;;;;;5014036;28;20449;-52
2021/07/20 01:20:08;;;;;;;7.53;5.23;;;19.70;99.90;;;;;;5014082;28;21026;-52
2021/07/20 01:22:36;;;;;;;9.00;6.40;;;19.70;99.90;;;;;;5014065;28;20496;-52
2021/07/20 01:25:09;;;;;;;8.00;5.67;;;19.80;99.90;;;;;;5014214;28;20518;-52
2021/07/20 01:27:38;;;;;;;6.57;5.30;;;19.70;99.90;;;;;;5013520;28;20465;-52
2021/07/20 01:30:06;;;;;;;8.00;6.17;;;19.60;99.90;;;;;;5013928;28;20508;-52
2021/07/20 01:32:35;;;;;;;9.47;5.77;;;19.70;99.90;;;;;;5013482;28;21220;-52
2021/07/20 01:35:03;;;;;;;6.67;5.97;;;19.60;99.90;;;;;;5014205;28;20457;-52
2021/07/20 01:37:30;;;;;;;10.33;6.10;;;19.40;99.90;;;;;;5013387;28;20454;-53
2021/07/20 01:39:59;;;;;;;6.83;6.13;;;19.40;99.90;;;;;;5013434;28;20474;-52
2021/07/20 01:42:28;;;;;;;9.30;6.40;;;19.20;99.90;;;;;;5013837;28;20464;-52
2021/07/20 01:44:57;;;;;;;8.00;6.30;;;19.40;99.90;;;;;;5013862;28;20460;-53
2021/07/20 01:47:26;;;;;;;7.47;6.60;;;19.50;99.90;;;;;;5013046;28;20445;-52
2021/07/20 01:49:55;;;;;;;7.10;6.33;;;19.40;99.90;;;;;;5013061;28;20449;-52
2021/07/20 01:52:22;;;;;;;7.53;6.70;;;19.20;99.90;;;;;;5013762;28;20453;-52
2021/07/20 01:54:50;;;;;;;8.63;6.00;;;19.20;99.90;;;;;;5013834;28;20465;-53
2021/07/20 01:57:18;;;;;;;7.73;6.00;;;19.10;99.90;;;;;;5013294;28;20453;-52
2021/07/20 01:59:47;;;;;;;7.20;5.40;;;19.10;99.90;;;;;;5013671;28;20454;-52
2021/07/20 02:02:28;;;;;;;7.77;5.30;;;19.00;99.90;;;;;;5069784;22;20495;-54
2021/07/20 02:10:26;;;;;;;9.83;5.97;;;18.90;99.90;;;;;;5032818;28;20974;-54
2021/07/20 02:12:56;;;;;;;8.77;6.97;;;19.00;99.90;;;;;;5035264;28;20965;-54
2021/07/20 02:15:25;;;;;;;7.53;5.70;;;19.00;99.90;;;;;;5052763;28;20461;-53
2021/07/20 02:17:54;;;;;;;7.17;5.80;;;19.00;99.90;;;;;;5051938;28;20456;-54
2021/07/20 02:20:24;;;;;;;7.60;5.90;;;19.10;99.90;;;;;;5052597;28;20517;-54
2021/07/20 02:22:54;;;;;;;11.10;5.80;;;19.00;99.90;;;;;;5052257;28;20818;-54
2021/07/20 02:25:24;;;;;;;8.77;6.23;;;18.90;99.90;;;;;;5052331;28;20447;-54
2021/07/20 02:27:51;;;;;;;6.83;6.20;;;19.00;99.90;;;;;;5051934;28;20456;-54
2021/07/20 02:30:19;;;;;;;8.57;6.90;;;19.00;99.90;;;;;;5051994;28;20968;-54
2021/07/20 02:32:48;;;;;;;7.50;6.50;;;19.10;99.90;;;;;;5051969;28;20451;-54
2021/07/20 02:35:21;;;;;;;7.63;6.20;;;19.10;99.90;;;;;;5052114;28;20521;-54
2021/07/20 02:37:50;;;;;;;10.13;6.20;;;19.10;99.90;;;;;;5051914;28;20517;-54
2021/07/20 02:40:18;;;;;;;9.33;5.97;;;19.00;99.90;;;;;;5052036;28;20501;-54
2021/07/20 02:42:46;;;;;;;6.77;5.70;;;19.10;99.90;;;;;;5051969;28;20456;-54
2021/07/20 02:45:14;;;;;;;10.67;6.13;;;19.10;99.90;;;;;;5044809;28;20456;-54
2021/07/20 02:47:42;;;;;;;8.60;7.13;;;19.00;99.90;;;;;;5039659;28;20505;-54
2021/07/20 02:50:14;;;;;;;7.70;6.40;;;18.90;99.90;;;;;;5050670;28;21030;-54
2021/07/20 02:52:45;;;;;;;7.63;6.70;;;19.00;99.90;;;;;;5051657;28;20533;-55
2021/07/20 02:55:13;;;;;;;6.90;6.20;;;19.00;99.90;;;;;;5052020;28;20459;-53
2021/07/20 02:57:42;;;;;;;7.77;6.90;;;18.90;99.90;;;;;;5051356;28;20448;-54
2021/07/20 03:00:11;;;;;;;8.30;6.20;;;18.80;99.90;;;;;;5051290;28;21003;-54
2021/07/20 03:02:42;;;;;;;7.37;6.57;;;18.70;99.90;;;;;;5051591;28;20517;-54
2021/07/20 03:05:12;;;;;;;6.83;6.13;;;18.70;99.90;;;;;;5051453;28;20480;-54
2021/07/20 03:07:41;;;;;;;9.43;6.70;;;18.70;99.90;;;;;;5051122;28;20497;-53
2021/07/20 03:10:11;;;;;;;8.23;6.13;;;18.70;99.90;;;;;;5050997;28;20542;-54
2021/07/20 03:12:42;;;;;;;6.53;5.50;;;18.70;99.90;;;;;;5050738;28;20452;-54
2021/07/20 03:15:10;;;;;;;8.83;6.10;;;18.70;99.90;;;;;;5051499;28;20501;-54
2021/07/20 03:17:37;;;;;;;8.07;6.13;;;18.70;99.90;;;;;;5051416;28;20480;-54
2021/07/20 03:20:07;;;;;;;8.70;6.27;;;18.60;99.90;;;;;;5051191;28;20468;-53
2021/07/20 03:22:36;;;;;;;8.23;6.93;;;18.60;99.90;;;;;;5050623;28;20804;-54
2021/07/20 03:25:06;;;;;;;8.40;6.80;;;18.20;99.90;;;;;;5050870;28;21019;-54
2021/07/20 03:27:35;;;;;;;8.23;6.43;;;18.00;99.90;;;;;;5049660;28;20456;-54
2021/07/20 03:30:04;;;;;;;10.50;7.00;;;18.10;99.90;;;;;;5051212;28;20823;-54
2021/07/20 03:32:32;;;;;;;7.47;6.50;;;18.00;99.90;;;;;;5051199;28;20447;-54
2021/07/20 03:35:01;;;;;;;8.53;6.27;;;18.10;99.90;;;;;;5051266;28;20496;-54
2021/07/20 03:37:28;;;;;;;7.80;6.00;;;18.20;99.90;;;;;;5051010;28;20464;-54
2021/07/20 03:39:57;;;;;;;9.70;6.67;;;18.30;99.90;;;;;;5050793;28;20469;-54
2021/07/20 03:42:26;;;;;;;10.30;7.60;;;18.30;99.90;;;;;;5050733;28;20464;-54
2021/07/20 03:44:54;;;;;;;8.37;7.20;;;18.30;99.90;;;;;;5050694;28;20483;-54
2021/07/20 03:47:22;;;;;;;7.87;7.00;;;18.30;99.90;;;;;;5050806;28;20490;-54
2021/07/20 03:49:50;;;;;;;10.27;6.80;;;18.30;99.90;;;;;;5050749;28;20945;-54
2021/07/20 03:52:17;;;;;;;8.67;7.03;;;18.30;99.90;;;;;;5050669;28;20613;-54
2021/07/20 03:54:45;;;;;;;9.40;7.63;;;18.30;99.90;;;;;;5050413;28;20501;-54
2021/07/20 03:57:17;;;;;;;12.27;6.47;;;18.30;99.90;;;;;;5050587;28;20504;-54
2021/07/20 03:59:45;;;;;;;7.00;5.87;;;18.30;99.90;;;;;;5050867;28;20868;-54
2021/07/20 04:02:15;;;;;;;11.53;7.30;;;18.40;99.90;;;;;;5050055;28;20544;-54
2021/07/20 04:04:45;;;;;;;10.87;7.40;;;18.40;99.90;;;;;;5050930;28;20490;-55
2021/07/20 04:07:15;;;;;;;7.80;7.00;;;18.30;99.90;;;;;;5050031;28;20552;-54
2021/07/20 04:09:42;;;;;;;9.20;6.50;;;18.20;99.90;;;;;;5032204;28;20440;-54
2021/07/20 04:12:13;;;;;;;11.20;7.17;;;18.30;99.90;;;;;;5050539;28;20499;-54
2021/07/20 04:14:42;;;;;;;12.23;7.03;;;18.20;99.90;;;;;;5050934;28;20505;-54
2021/07/20 04:17:10;;;;;;;8.57;7.00;;;18.30;99.90;;;;;;5050109;28;20451;-55
2021/07/20 04:19:39;;;;;;;13.17;7.33;;;18.60;99.90;;;;;;5030852;28;20507;-54
2021/07/20 04:22:06;;;;;;;7.47;6.67;;;18.50;99.90;;;;;;5046039;28;20589;-54
2021/07/20 04:24:34;;;;;;;8.47;6.87;;;18.50;99.90;;;;;;5052409;28;20653;-54
2021/07/20 04:27:03;;;;;;;7.93;6.77;;;18.50;99.90;;;;;;5053961;28;20953;-54
2021/07/20 04:29:31;;;;;;;9.73;7.07;;;18.60;99.90;;;;;;5053653;28;20513;-54
2021/07/20 04:32:07;;;;;;;9.13;6.73;;;18.60;99.90;;;;;;5053552;28;20471;-54
2021/07/20 04:34:35;;;;;;;10.83;6.43;;;18.70;99.90;;;;;;5054428;28;20454;-54
2021/07/20 04:37:07;;;;;;;7.90;6.83;;;18.80;99.90;;;;;;5054323;28;20448;-54
2021/07/20 04:39:36;;;;;;;8.43;7.43;;;18.80;99.90;;;;;;5053902;28;20444;-54
2021/07/20 04:42:06;;;;;;;8.30;7.27;;;19.00;99.90;;;;;;5054021;28;20975;-53
2021/07/20 04:44:34;;;;;;;10.87;7.80;;;19.00;99.90;;;;;;5054331;28;20533;-54
2021/07/20 04:47:04;;;;;;;18.30;7.73;;;19.10;99.90;;;;;;5053584;28;20529;-54
2021/07/20 04:49:31;;;;;;;12.17;7.53;;;19.20;99.90;;;;;;5053643;28;20443;-54
2021/07/20 04:51:58;;;;;;;8.77;7.30;;;19.40;99.90;;;;;;5053775;28;20842;-54
2021/07/20 04:54:25;;;;;;;10.17;7.83;;;19.40;99.90;;;;;;5054122;28;20497;-54
2021/07/20 04:56:52;;;;;;;8.37;7.50;;;19.40;99.90;;;;;;5053056;28;20451;-54
2021/07/20 04:59:19;;;;;;;7.77;6.70;;;19.50;99.90;;;;;;5051936;28;21063;-54
2021/07/20 05:01:48;;;;;;;17.43;8.40;;;19.60;99.90;;;;;;5053002;28;20582;-54
2021/07/20 05:04:17;;;;;;;9.17;7.03;;;19.70;99.90;;;;;;5053806;28;20479;-54
2021/07/20 05:06:47;;;;;;;11.87;7.83;;;19.80;99.90;;;;;;5054113;28;20451;-54
2021/07/20 05:09:14;;;;;;;10.53;7.80;;;19.90;99.90;;;;;;5053699;28;20459;-54
2021/07/20 05:11:41;;;;;;;8.47;6.63;;;19.90;99.90;;;;;;5053244;28;20475;-55
2021/07/20 05:14:08;;;;;;;8.60;6.93;;;19.90;99.90;;;;;;5036383;28;20447;-54
2021/07/20 05:16:36;;;;;;;11.53;6.90;;;20.00;99.90;;;;;;5052698;28;20455;-54
2021/07/20 05:19:03;;;;;;;10.50;8.17;;;20.10;99.90;;;;;;5052089;28;20586;-55
2021/07/20 05:21:34;;;;;;;10.57;8.60;;;19.90;99.90;;;;;;5052656;28;20471;-54
2021/07/20 05:24:01;;;;;;;9.63;7.03;;;19.90;99.90;;;;;;5053208;28;20632;-54
2021/07/20 05:26:29;;;;;;;12.00;8.37;;;19.90;99.90;;;;;;5053531;28;20806;-54
2021/07/20 05:28:57;;;;;;;8.60;7.40;;;20.00;99.90;;;;;;5053050;28;20452;-54
2021/07/20 05:31:27;;;;;;;13.20;9.20;;;20.20;99.90;;;;;;5052905;28;20989;-54
2021/07/20 05:33:54;;;;;;;11.67;8.13;;;20.20;99.90;;;;;;5052274;28;20497;-54
2021/07/20 05:36:22;;;;;;;12.73;7.67;;;20.30;99.90;;;;;;5044374;28;20452;-54
2021/07/20 05:38:50;;;;;;;8.60;7.70;;;20.50;99.90;;;;;;5052709;28;20452;-54
2021/07/20 05:41:18;;;;;;;10.90;7.97;;;21.30;99.90;;;;;;5053085;28;20479;-54
2021/07/20 05:43:45;;;;;;;14.73;8.03;;;22.00;99.90;;;;;;5053161;28;20539;-54
2021/07/20 05:46:12;;;;;;;13.90;7.50;;;22.20;99.90;;;;;;5052809;28;20462;-54
2021/07/20 05:48:40;;;;;;;9.93;7.20;;;22.10;99.90;;;;;;5052631;28;20953;-54
2021/07/20 05:51:07;;;;;;;9.13;7.67;;;22.60;99.90;;;;;;5053144;28;20471;-54
2021/07/20 05:53:37;;;;;;;11.77;8.17;;;23.20;99.90;;;;;;5053092;28;20448;-53
2021/07/20 05:56:07;;;;;;;12.40;8.20;;;23.10;99.90;;;;;;5052748;28;20440;-54
2021/07/20 05:58:34;;;;;;;12.70;8.20;;;23.50;99.90;;;;;;5053178;28;20451;-54
2021/07/20 06:01:03;;;;;;;10.50;7.80;;;22.90;99.90;;;;;;5052429;28;21070;-54
2021/07/20 06:03:32;;;;;;;11.80;8.30;;;22.30;99.90;;;;;;5045846;28;21038;-54
2021/07/20 06:06:00;;;;;;;12.00;8.40;;;22.10;99.90;;;;;;5044402;28;20491;-54
2021/07/20 06:08:28;;;;;;;12.17;8.37;;;22.00;99.90;;;;;;5042341;28;20539;-53
2021/07/20 06:10:58;;;;;;;9.40;7.93;;;22.20;99.90;;;;;;5042333;28;20835;-53
2021/07/20 06:13:29;;;;;;;11.70;7.53;;;23.00;99.90;;;;;;5043587;28;20983;-54
2021/07/20 06:15:58;;;;;;;12.87;6.93;;;23.80;99.90;;;;;;5047163;28;20455;-54
2021/07/20 06:18:25;;;;;;;10.67;8.07;;;24.80;99.90;;;;;;5045929;28;20456;-53
2021/07/20 06:20:57;;;;;;;10.80;8.20;;;25.30;99.90;;;;;;5051150;28;20467;-54
2021/07/20 06:23:25;;;;;;;12.20;8.03;;;25.20;99.90;;;;;;5052484;28;20930;-54
2021/07/20 06:25:53;;;;;;;13.80;7.87;;;25.60;99.90;;;;;;5050810;28;20561;-53
2021/07/20 06:28:22;;;;;;;18.23;9.40;;;25.50;99.90;;;;;;5046068;28;20456;-54
2021/07/20 06:30:51;;;;;;;15.30;9.07;;;23.80;99.90;;;;;;5068874;28;20466;-53
2021/07/20 06:33:19;;;;;;;12.77;8.70;;;23.70;99.90;;;;;;5061434;28;20559;-54
2021/07/20 06:35:47;;;;;;;11.20;8.90;;;23.60;99.90;;;;;;5060421;28;20505;-54
2021/07/20 06:38:16;;;;;;;10.90;8.73;;;23.90;99.90;;;;;;5046262;28;20444;-54
2021/07/20 06:40:45;;;;;;;14.93;9.10;;;23.60;99.90;;;;;;5037842;28;20921;-54
2021/07/20 06:43:14;;;;;;;13.63;9.33;;;23.30;99.90;;;;;;5052215;28;20447;-54
2021/07/20 06:45:45;;;;;;;14.63;9.17;;;23.00;99.90;;;;;;5051120;28;20479;-54
2021/07/20 06:48:15;;;;;;;15.20;9.00;;;23.20;99.90;;;;;;5052255;28;20828;-54
2021/07/20 06:50:43;;;;;;;13.57;10.30;;;23.60;99.90;;;;;;5043686;28;20530;-53
2021/07/20 06:53:13;;;;;;;12.93;9.60;;;24.60;99.90;;;;;;5041779;28;20968;-53
2021/07/20 06:55:45;;;;;;;15.63;10.57;;;24.50;99.90;;;;;;5043518;28;20462;-54
2021/07/20 06:58:13;;;;;;;13.93;10.20;;;25.00;99.90;;;;;;5041997;28;20499;-54
2021/07/20 07:00:42;;;;;;;13.53;9.70;;;25.40;99.90;;;;;;5041209;28;20557;-54
2021/07/20 07:03:11;;;;;;;14.60;9.73;;;26.00;99.90;;;;;;5040297;28;20456;-54
2021/07/20 07:05:40;;;;;;;12.10;9.83;;;25.20;99.90;;;;;;5047138;28;20228;-54
2021/07/20 07:08:08;;;;;;;13.40;9.00;;;25.30;99.90;;;;;;5054824;28;20468;-54
2021/07/20 07:10:36;;;;;;;11.37;8.77;;;25.30;99.90;;;;;;5042749;28;20550;-54
2021/07/20 07:13:06;;;;;;;16.30;10.17;;;26.30;99.90;;;;;;5040345;28;20479;-53
2021/07/20 07:15:33;;;;;;;11.77;8.80;;;25.90;99.90;;;;;;5039909;28;20514;-54
2021/07/20 07:18:00;;;;;;;12.70;9.50;;;26.80;99.90;;;;;;5042457;28;20529;-54
2021/07/20 07:20:29;;;;;;;10.67;8.60;;;27.80;99.90;;;;;;5045356;28;20475;-54
2021/07/20 07:22:59;;;;;;;11.30;8.40;;;27.60;99.90;;;;;;5040858;28;20459;-55
2021/07/20 07:25:27;;;;;;;11.93;7.80;;;27.90;99.90;;;;;;5040188;28;20577;-54
2021/07/20 07:27:56;;;;;;;10.50;8.60;;;28.40;99.90;;;;;;5045367;28;20463;-54
2021/07/20 07:30:24;;;;;;;13.20;8.87;;;27.90;99.90;;;;;;5052932;28;20464;-54
2021/07/20 07:32:52;;;;;;;14.77;8.80;;;28.60;99.90;;;;;;5058020;28;20474;-54
2021/07/20 07:35:19;;;;;;;13.13;10.57;;;28.50;99.90;;;;;;5046963;28;20811;-54
2021/07/20 07:37:47;;;;;;;13.13;10.10;;;28.30;99.90;;;;;;5061880;28;20501;-54
2021/07/20 07:40:17;;;;;;;13.37;9.60;;;28.10;99.90;;;;;;5054539;28;20506;-54
2021/07/20 07:42:45;;;;;;;12.77;10.10;;;28.10;99.90;;;;;;5060089;28;20467;-54
2021/07/20 07:45:14;;;;;;;13.80;10.37;;;28.10;99.90;;;;;;5054090;28;21076;-54
2021/07/20 07:47:45;;;;;;;12.27;10.10;;;28.50;99.90;;;;;;5057802;28;20953;-54
2021/07/20 07:50:13;;;;;;;12.97;10.30;;;28.60;99.90;;;;;;5055845;28;20490;-54
2021/07/20 07:52:41;;;;;;;12.90;10.03;;;28.70;99.90;;;;;;5058240;28;20723;-55
2021/07/20 07:55:10;;;;;;;14.67;10.50;;;28.90;99.90;;;;;;5056224;28;20516;-55
2021/07/20 07:57:39;;;;;;;18.93;10.00;;;29.10;99.90;;;;;;5059270;28;21031;-55
2021/07/20 08:00:08;;;;;;;17.03;10.60;;;29.20;99.90;;;;;;5063124;28;20524;-55
2021/07/20 08:02:36;;;;;;;12.70;10.30;;;27.50;99.90;;;;;;5062930;22;20857;-59
2021/07/20 08:05:06;;;;;;;17.40;11.03;;;26.90;99.90;;;;;;5032618;28;20680;-60
2021/07/20 08:07:34;;;;;;;11.97;10.00;;;27.20;99.90;;;;;;5033098;28;20522;-60
2021/07/20 08:10:01;;;;;;;12.80;10.23;;;28.00;99.90;;;;;;5032666;28;20464;-60
2021/07/20 08:12:30;;;;;;;13.97;10.60;;;27.90;99.90;;;;;;5034268;28;20907;-60
2021/07/20 08:14:58;;;;;;;13.53;10.17;;;27.70;99.90;;;;;;5034329;28;20881;-60
2021/07/20 08:17:27;;;;;;;13.60;10.20;;;28.20;99.90;;;;;;5034941;28;20925;-60
2021/07/20 08:19:57;;;;;;;13.83;11.37;;;28.60;99.90;;;;;;5021072;28;20879;-60
2021/07/20 08:22:27;;;;;;;16.47;10.50;;;29.00;99.90;;;;;;5030763;28;20494;-60
2021/07/20 08:25:02;;;;;;;16.27;11.80;;;29.10;99.90;;;;;;5035189;28;20484;-60
2021/07/20 08:27:36;;;;;;;13.50;11.30;;;27.70;99.90;;;;;;5033011;28;20464;-60
2021/07/20 08:30:05;;;;;;;14.63;11.70;;;27.80;99.90;;;;;;5027056;28;20519;-60
2021/07/20 08:32:36;;;;;;;16.40;12.00;;;27.10;99.90;;;;;;5034649;28;20867;-60
2021/07/20 08:35:08;;;;;;;15.77;10.90;;;26.20;99.90;;;;;;5033846;28;20465;-60
2021/07/20 08:37:39;;;;;;;16.00;11.47;;;26.30;99.90;;;;;;5034416;28;21011;-60
2021/07/20 08:40:15;;;;;;;15.57;11.30;;;25.90;99.90;;;;;;5033883;28;20474;-60
2021/07/20 08:42:55;;;;;;;18.00;11.33;;;26.40;99.90;;;;;;5032630;28;20550;-59
2021/07/20 08:45:30;;;;;;;15.83;11.03;;;26.60;99.90;;;;;;5034570;28;20934;-59
2021/07/20 08:48:15;;;;;;;16.10;11.37;;;26.40;99.90;;;;;;5021597;28;20953;-60
2021/07/20 08:50:48;;;;;;;14.00;10.03;;;27.10;99.90;;;;;;5033030;28;21023;-59
2021/07/20 08:53:24;;;;;;;20.03;12.93;;;27.80;99.90;;;;;;5033588;28;20522;-60
2021/07/20 08:55:54;;;;;;;14.20;11.30;;;26.70;99.90;;;;;;5033106;28;20456;-60
2021/07/20 08:58:28;;;;;;;15.67;11.37;;;26.70;99.90;;;;;;5034584;28;20441;-61
2021/07/20 09:01:01;;;;;;;18.33;11.17;;;27.80;99.90;;;;;;5030789;28;20470;-60
2021/07/20 09:03:37;;;;;;;14.60;10.87;;;28.30;99.90;;;;;;5031973;28;20518;-59
2021/07/20 09:06:08;;;;;;;125.57;20.20;;;29.00;99.90;;;;;;5023368;28;21090;-60
2021/07/20 09:08:40;;;;;;;14.23;11.50;;;29.70;99.90;;;;;;5022134;28;20514;-60
2021/07/20 09:11:12;;;;;;;14.70;11.50;;;29.40;99.90;;;;;;5022254;28;20989;-60
2021/07/20 09:13:43;;;;;;;16.57;12.47;;;28.40;99.90;;;;;;5023389;28;20468;-60
2021/07/20 09:16:22;;;;;;;17.10;12.33;;;28.20;99.90;;;;;;5023225;28;20547;-60
2021/07/20 09:18:53;;;;;;;15.67;11.80;;;27.20;99.90;;;;;;5024487;28;20460;-59
2021/07/20 09:21:23;;;;;;;16.73;12.77;;;26.10;99.90;;;;;;5022840;28;20484;-60
2021/07/20 09:23:57;;;;;;;15.13;11.27;;;26.20;99.90;;;;;;5023108;28;20889;-59
2021/07/20 09:26:25;;;;;;;22.87;13.40;;;26.20;99.90;;;;;;5022983;28;20519;-60
2021/07/20 09:28:58;;;;;;;15.17;11.40;;;26.30;99.90;;;;;;5026379;28;20511;-60
2021/07/20 09:31:36;;;;;;;16.80;12.20;;;26.40;99.90;;;;;;5031489;28;20993;-60
2021/07/20 09:34:26;;;;;;;19.67;12.43;;;26.40;99.90;;;;;;5026164;28;20515;-60
2021/07/20 09:37:03;;;;;;;19.70;12.77;;;25.90;99.90;;;;;;5028234;28;20818;-59
2021/07/20 09:39:50;;;;;;;17.73;11.67;;;26.00;99.90;;;;;;5031831;28;20468;-60
2021/07/20 09:42:35;;;;;;;17.70;12.47;;;25.90;99.90;;;;;;5032487;28;20484;-59
2021/07/20 09:45:08;;;;;;;15.73;11.87;;;26.10;99.90;;;;;;5026948;28;20510;-60
2021/07/20 09:47:54;;;;;;;20.70;11.40;;;26.20;99.90;;;;;;5031965;28;20461;-60
2021/07/20 09:50:22;;;;;;;15.70;12.20;;;27.20;99.90;;;;;;5032703;28;20464;-60
2021/07/20 09:53:28;;;;;;;20.47;12.97;;;27.20;99.90;;;;;;5032511;28;20480;-60
2021/07/20 09:56:18;;;;;;;17.20;11.30;;;26.90;99.90;;;;;;5013762;28;20961;-60
2021/07/20 09:58:53;;;;;;;15.60;11.53;;;27.80;99.90;;;;;;5023854;28;20894;-59
2021/07/20 10:01:25;;;;;;;16.83;11.07;;;27.50;99.90;;;;;;5030857;28;21019;-60
2021/07/20 10:04:00;;;;;;;32.27;13.63;;;26.80;99.90;;;;;;5031405;28;20469;-60
2021/07/20 10:06:36;;;;;;;55.70;15.63;;;27.80;99.90;;;;;;5029841;28;21071;-60
2021/07/20 10:09:06;;;;;;;21.43;11.30;;;27.70;99.90;;;;;;5026213;28;20460;-60
2021/07/20 10:11:44;;;;;;;15.50;11.30;;;27.30;99.90;;;;;;5031895;28;20940;-60
2021/07/20 10:14:36;;;;;;;11.70;9.97;;;26.90;99.90;;;;;;5029660;28;20472;-60
2021/07/20 10:17:18;;;;;;;13.67;11.07;;;26.10;99.90;;;;;;5025566;28;20973;-59
2021/07/20 10:19:50;;;;;;;17.80;10.60;;;26.20;99.90;;;;;;5027084;28;20460;-59
2021/07/20 10:22:25;;;;;;;14.63;10.27;;;26.10;99.90;;;;;;5030731;28;20993;-60
2021/07/20 10:24:59;;;;;;;15.33;10.37;;;26.20;99.90;;;;;;5033094;28;20444;-60
2021/07/20 10:27:35;;;;;;;14.93;10.70;;;26.00;99.90;;;;;;5027007;28;20638;-59
2021/07/20 10:30:06;;;;;;;10.50;9.20;;;26.40;99.90;;;;;;5022427;28;20853;-60
2021/07/20 10:32:44;;;;;;;11.23;8.50;;;26.90;99.90;;;;;;5023494;28;21044;-59
2021/07/20 10:35:19;;;;;;;11.83;9.60;;;27.50;99.90;;;;;;5019629;28;20974;-59
2021/07/20 10:37:49;;;;;;;16.00;10.40;;;28.10;99.90;;;;;;5020826;28;20537;-60
2021/07/20 10:40:20;;;;;;;14.80;9.67;;;27.90;99.90;;;;;;5022523;28;20462;-60
2021/07/20 10:42:53;;;;;;;12.80;9.80;;;27.90;99.90;;;;;;5019170;28;20516;-59
2021/07/20 10:45:22;;;;;;;12.20;10.00;;;27.70;99.90;;;;;;5020976;28;20202;-59
2021/07/20 10:47:55;;;;;;;10.53;9.03;;;27.90;99.90;;;;;;5022674;28;20527;-60
2021/07/20 10:50:28;;;;;;;11.50;9.30;;;28.40;99.90;;;;;;5021539;28;20468;-60
2021/07/20 10:53:09;;;;;;;16.03;10.73;;;28.80;99.90;;;;;;5020892;28;20492;-61
2021/07/20 10:55:43;;;;;;;11.33;9.37;;;29.10;99.90;;;;;;5028340;28;20500;-61
2021/07/20 10:58:25;;;;;;;13.27;9.60;;;29.20;99.90;;;;;;5022529;28;20563;-60
2021/07/20 11:00:59;;;;;;;10.50;9.00;;;29.40;99.90;;;;;;5020985;28;20523;-60
2021/07/20 11:03:41;;;;;;;12.83;9.90;;;29.00;99.90;;;;;;5021491;28;20574;-60
2021/07/20 11:06:13;;;;;;;11.20;9.00;;;28.30;99.90;;;;;;5020127;28;20534;-59
2021/07/20 11:08:44;;;;;;;12.53;9.30;;;28.00;99.90;;;;;;5021347;28;20476;-59
2021/07/20 11:11:18;;;;;;;11.63;9.80;;;28.30;99.90;;;;;;5024193;28;20861;-59
2021/07/20 11:13:48;;;;;;;11.73;9.40;;;28.50;99.90;;;;;;5022622;28;20546;-60
2021/07/20 11:16:16;;;;;;;11.60;9.00;;;28.70;99.90;;;;;;5022557;28;20521;-60
2021/07/20 11:18:46;;;;;;;14.50;11.33;;;28.40;99.90;;;;;;5020556;28;20460;-59
2021/07/20 11:21:17;;;;;;;14.47;10.37;;;27.20;99.90;;;;;;5020457;28;20484;-59
2021/07/20 11:23:46;;;;;;;12.90;10.37;;;26.60;99.90;;;;;;5021338;28;20526;-59
2021/07/20 11:26:15;;;;;;;12.63;10.40;;;26.20;99.90;;;;;;5020372;28;21084;-59
2021/07/20 11:28:44;;;;;;;15.10;10.33;;;26.40;99.90;;;;;;5023197;28;20468;-60
2021/07/20 11:31:17;;;;;;;13.50;9.43;;;26.60;99.90;;;;;;5021830;28;21020;-59
2021/07/20 11:33:48;;;;;;;11.80;9.40;;;27.00;99.90;;;;;;5020388;28;20591;-58
2021/07/20 11:36:20;;;;;;;14.67;10.37;;;27.50;99.90;;;;;;5022503;28;20468;-60
2021/07/20 11:38:51;;;;;;;11.87;9.87;;;27.70;99.90;;;;;;5030003;28;20465;-59
2021/07/20 11:41:32;;;;;;;13.17;9.87;;;26.70;99.90;;;;;;5031368;28;20465;-59
2021/07/20 11:44:09;;;;;;;19.70;10.33;;;27.00;99.90;;;;;;5023677;28;20938;-58
2021/07/20 11:46:43;;;;;;;15.83;10.30;;;26.60;99.90;;;;;;5019992;28;20488;-58
2021/07/20 11:49:16;;;;;;;13.23;9.53;;;26.70;99.90;;;;;;5024789;28;20522;-59
2021/07/20 11:51:50;;;;;;;13.43;10.63;;;26.80;99.90;;;;;;5021068;28;20507;-60
2021/07/20 11:54:28;;;;;;;16.73;10.80;;;26.70;99.90;;;;;;5025864;28;20972;-60
2021/07/20 11:57:06;;;;;;;15.60;10.43;;;26.30;99.90;;;;;;5020871;28;20892;-58
2021/07/20 12:00:01;;;;;;;12.20;9.20;;;26.40;99.90;;;;;;5023486;28;20490;-60
2021/07/20 12:03:06;;;;;;;14.10;8.67;;;26.20;99.90;;;;;;5020288;28;20538;-59
2021/07/20 12:06:10;;;;;;;11.77;9.23;;;25.70;99.90;;;;;;5020559;28;20710;-58
2021/07/20 12:08:59;;;;;;;15.43;9.60;;;25.90;99.90;;;;;;5017983;28;20843;-58
2021/07/20 12:11:30;;;;;;;12.10;10.00;;;25.70;99.90;;;;;;5019927;28;20487;-59
2021/07/20 12:14:00;;;;;;;14.67;10.53;;;25.80;99.90;;;;;;5030456;28;21059;-59
2021/07/20 12:16:27;;;;;;;13.57;10.53;;;26.10;99.90;;;;;;5031482;28;20532;-59
2021/07/20 12:18:55;;;;;;;14.37;10.07;;;26.00;99.90;;;;;;5031065;28;20879;-59
2021/07/20 12:21:23;;;;;;;10.50;9.10;;;25.80;99.90;;;;;;5031079;28;20465;-59
2021/07/20 12:23:55;;;;;;;12.77;10.10;;;25.70;99.90;;;;;;5031467;28;20823;-59
2021/07/20 12:26:22;;;;;;;12.70;10.40;;;25.90;99.90;;;;;;5031495;28;20484;-59
2021/07/20 12:28:50;;;;;;;13.07;9.43;;;25.90;99.90;;;;;;5025806;28;20460;-59
2021/07/20 12:31:17;;;;;;;13.83;10.40;;;25.90;99.90;;;;;;5011543;28;20891;-59
2021/07/20 12:33:46;;;;;;;12.70;8.80;;;25.90;99.90;;;;;;5011221;28;20457;-58
2021/07/20 12:36:13;;;;;;;15.67;9.40;;;25.80;99.90;;;;;;5011406;28;20519;-59
2021/07/20 12:38:41;;;;;;;12.30;9.03;;;25.80;99.90;;;;;;5021528;28;20448;-60
2021/07/20 12:41:11;;;;;;;11.37;9.30;;;25.70;99.90;;;;;;5031058;28;20472;-59
2021/07/20 12:43:41;;;;;;;11.30;8.70;;;25.50;99.90;;;;;;5034710;28;20452;-61
2021/07/20 12:46:13;;;;;;;15.30;10.00;;;25.80;99.90;;;;;;5034814;28;20547;-60
2021/07/20 12:48:49;;;;;;;12.43;8.90;;;26.10;99.90;;;;;;5034580;28;20456;-59
2021/07/20 12:51:17;;;;;;;10.93;9.17;;;26.00;99.90;;;;;;5034544;28;20525;-58
2021/07/20 12:53:46;;;;;;;11.07;8.80;;;26.00;99.90;;;;;;5034577;28;20518;-59
2021/07/20 12:56:19;;;;;;;11.43;8.90;;;26.00;99.90;;;;;;5034628;28;20458;-59
2021/07/20 12:58:47;;;;;;;12.50;8.67;;;26.00;99.90;;;;;;5034543;28;20460;-59
2021/07/20 13:01:16;;;;;;;14.80;9.00;;;26.20;99.90;;;;;;5034393;28;20471;-59